sensor_id;sensor_type;location;lat;lon;timestamp;P1;durP1;ratioP1;P2;durP2;ratioP2
65289;SDS011;51893;59.754;10.110;2023-03-13T00:01:44;0.60;;;0.60;;
65289;SDS011;51893;59.754;10.110;2023-03-13T00:04:14;0.50;;;0.50;;
65289;SDS011;51893;59.754;10.110;2023-03-13T00:06:42;2.10;;;0.90;;
65289;SDS011;51893;59.754;10.110;2023-03-13T00:09:14;0.60;;;0.60;;
65289;SDS011;51893;59.754;10.110;2023-03-13T00:11:44;1.90;;;0.60;;
65289;SDS011;51893;59.754;10.110;2023-03-13T00:14:12;0.90;;;0.90;;
65289;SDS011;51893;59.754;10.110;2023-03-13T00:16:41;1.60;;;0.70;;
65289;SDS011;51893;59.754;10.110;2023-03-13T00:19:09;0.90;;;0.60;;
65289;SDS011;51893;59.754;10.110;2023-03-13T00:21:37;0.50;;;0.50;;
65289;SDS011;51893;59.754;10.110;2023-03-13T00:24:10;2.50;;;0.80;;
65289;SDS011;51893;59.754;10.110;2023-03-13T00:26:39;0.80;;;0.70;;
65289;SDS011;51893;59.754;10.110;2023-03-13T00:29:07;0.70;;;0.70;;
65289;SDS011;51893;59.754;10.110;2023-03-13T00:31:36;0.70;;;0.60;;
65289;SDS011;51893;59.754;10.110;2023-03-13T00:34:04;0.60;;;0.60;;
65289;SDS011;51893;59.754;10.110;2023-03-13T00:36:33;0.70;;;0.50;;
65289;SDS011;51893;59.754;10.110;2023-03-13T00:39:05;0.80;;;0.70;;
65289;SDS011;51893;59.754;10.110;2023-03-13T00:41:34;0.80;;;0.60;;
65289;SDS011;51893;59.754;10.110;2023-03-13T00:44:05;2.90;;;0.80;;
65289;SDS011;51893;59.754;10.110;2023-03-13T00:46:33;0.70;;;0.70;;
65289;SDS011;51893;59.754;10.110;2023-03-13T00:49:03;0.60;;;0.60;;
65289;SDS011;51893;59.754;10.110;2023-03-13T00:51:33;1.60;;;0.80;;
65289;SDS011;51893;59.754;10.110;2023-03-13T00:54:04;1.10;;;0.70;;
65289;SDS011;51893;59.754;10.110;2023-03-13T00:56:34;0.90;;;0.60;;
65289;SDS011;51893;59.754;10.110;2023-03-13T00:59:04;0.70;;;0.70;;
65289;SDS011;51893;59.754;10.110;2023-03-13T01:01:35;0.70;;;0.70;;
65289;SDS011;51893;59.754;10.110;2023-03-13T01:04:08;0.50;;;0.50;;
65289;SDS011;51893;59.754;10.110;2023-03-13T01:09:13;1.30;;;0.70;;
65289;SDS011;51893;59.754;10.110;2023-03-13T01:11:45;0.40;;;0.40;;
65289;SDS011;51893;59.754;10.110;2023-03-13T01:14:16;0.90;;;0.70;;
65289;SDS011;51893;59.754;10.110;2023-03-13T01:16:46;0.90;;;0.70;;
65289;SDS011;51893;59.754;10.110;2023-03-13T01:19:17;0.80;;;0.70;;
65289;SDS011;51893;59.754;10.110;2023-03-13T01:21:45;1.00;;;0.70;;
65289;SDS011;51893;59.754;10.110;2023-03-13T01:24:13;0.70;;;0.70;;
65289;SDS011;51893;59.754;10.110;2023-03-13T01:26:41;0.70;;;0.70;;
65289;SDS011;51893;59.754;10.110;2023-03-13T01:29:11;0.70;;;0.70;;
65289;SDS011;51893;59.754;10.110;2023-03-13T01:31:40;0.80;;;0.80;;
65289;SDS011;51893;59.754;10.110;2023-03-13T01:34:09;0.90;;;0.90;;
65289;SDS011;51893;59.754;10.110;2023-03-13T01:36:41;0.60;;;0.60;;
65289;SDS011;51893;59.754;10.110;2023-03-13T01:39:10;2.70;;;0.80;;
65289;SDS011;51893;59.754;10.110;2023-03-13T01:41:39;2.10;;;0.80;;
65289;SDS011;51893;59.754;10.110;2023-03-13T01:44:24;1.00;;;0.80;;
65289;SDS011;51893;59.754;10.110;2023-03-13T01:46:54;0.90;;;0.80;;
65289;SDS011;51893;59.754;10.110;2023-03-13T01:49:30;0.60;;;0.60;;
65289;SDS011;51893;59.754;10.110;2023-03-13T01:52:16;1.10;;;0.90;;
65289;SDS011;51893;59.754;10.110;2023-03-13T01:55:02;2.60;;;0.90;;
65289;SDS011;51893;59.754;10.110;2023-03-13T01:57:47;0.60;;;0.60;;
65289;SDS011;51893;59.754;10.110;2023-03-13T02:00:22;1.40;;;0.80;;
65289;SDS011;51893;59.754;10.110;2023-03-13T02:02:55;1.30;;;0.90;;
65289;SDS011;51893;59.754;10.110;2023-03-13T02:05:30;2.80;;;0.70;;
65289;SDS011;51893;59.754;10.110;2023-03-13T02:08:03;1.00;;;0.80;;
65289;SDS011;51893;59.754;10.110;2023-03-13T02:10:42;0.80;;;0.80;;
65289;SDS011;51893;59.754;10.110;2023-03-13T02:13:33;1.00;;;0.80;;
65289;SDS011;51893;59.754;10.110;2023-03-13T02:16:04;0.70;;;0.50;;
65289;SDS011;51893;59.754;10.110;2023-03-13T02:18:35;1.20;;;1.10;;
65289;SDS011;51893;59.754;10.110;2023-03-13T02:21:18;2.00;;;0.80;;
65289;SDS011;51893;59.754;10.110;2023-03-13T02:24:06;3.40;;;1.00;;
65289;SDS011;51893;59.754;10.110;2023-03-13T02:26:41;0.50;;;0.50;;
65289;SDS011;51893;59.754;10.110;2023-03-13T02:29:09;1.30;;;0.70;;
65289;SDS011;51893;59.754;10.110;2023-03-13T02:31:47;1.50;;;0.80;;
65289;SDS011;51893;59.754;10.110;2023-03-13T02:34:21;1.30;;;0.80;;
65289;SDS011;51893;59.754;10.110;2023-03-13T02:36:57;1.00;;;1.00;;
65289;SDS011;51893;59.754;10.110;2023-03-13T02:39:27;1.90;;;0.90;;
65289;SDS011;51893;59.754;10.110;2023-03-13T02:41:57;0.70;;;0.60;;
65289;SDS011;51893;59.754;10.110;2023-03-13T02:44:30;0.70;;;0.70;;
65289;SDS011;51893;59.754;10.110;2023-03-13T02:47:00;0.70;;;0.70;;
65289;SDS011;51893;59.754;10.110;2023-03-13T02:49:29;0.90;;;0.60;;
65289;SDS011;51893;59.754;10.110;2023-03-13T02:51:59;2.40;;;0.80;;
65289;SDS011;51893;59.754;10.110;2023-03-13T02:54:51;3.20;;;0.90;;
65289;SDS011;51893;59.754;10.110;2023-03-13T02:57:23;1.20;;;0.80;;
65289;SDS011;51893;59.754;10.110;2023-03-13T02:59:59;1.10;;;0.80;;
65289;SDS011;51893;59.754;10.110;2023-03-13T03:02:30;1.50;;;0.80;;
65289;SDS011;51893;59.754;10.110;2023-03-13T03:04:58;1.60;;;0.70;;
65289;SDS011;51893;59.754;10.110;2023-03-13T03:07:27;1.00;;;0.80;;
65289;SDS011;51893;59.754;10.110;2023-03-13T03:09:59;0.60;;;0.60;;
65289;SDS011;51893;59.754;10.110;2023-03-13T03:12:30;0.90;;;0.80;;
65289;SDS011;51893;59.754;10.110;2023-03-13T03:14:59;1.00;;;0.80;;
65289;SDS011;51893;59.754;10.110;2023-03-13T03:17:29;1.80;;;0.80;;
65289;SDS011;51893;59.754;10.110;2023-03-13T03:20:01;0.70;;;0.70;;
65289;SDS011;51893;59.754;10.110;2023-03-13T03:22:32;1.10;;;0.80;;
65289;SDS011;51893;59.754;10.110;2023-03-13T03:25:03;0.70;;;0.70;;
65289;SDS011;51893;59.754;10.110;2023-03-13T03:27:35;0.70;;;0.70;;
65289;SDS011;51893;59.754;10.110;2023-03-13T03:30:06;1.40;;;0.70;;
65289;SDS011;51893;59.754;10.110;2023-03-13T03:32:34;3.10;;;0.90;;
65289;SDS011;51893;59.754;10.110;2023-03-13T03:35:04;2.20;;;0.70;;
65289;SDS011;51893;59.754;10.110;2023-03-13T03:37:32;1.80;;;0.80;;
65289;SDS011;51893;59.754;10.110;2023-03-13T03:40:01;1.00;;;0.70;;
65289;SDS011;51893;59.754;10.110;2023-03-13T03:42:30;2.10;;;1.00;;
65289;SDS011;51893;59.754;10.110;2023-03-13T03:44:58;0.70;;;0.70;;
65289;SDS011;51893;59.754;10.110;2023-03-13T03:47:26;2.00;;;0.90;;
65289;SDS011;51893;59.754;10.110;2023-03-13T03:49:56;1.00;;;0.80;;
65289;SDS011;51893;59.754;10.110;2023-03-13T03:52:25;2.50;;;1.00;;
65289;SDS011;51893;59.754;10.110;2023-03-13T03:54:53;0.80;;;0.80;;
65289;SDS011;51893;59.754;10.110;2023-03-13T03:57:21;0.70;;;0.70;;
65289;SDS011;51893;59.754;10.110;2023-03-13T03:59:49;1.00;;;0.70;;
65289;SDS011;51893;59.754;10.110;2023-03-13T04:02:17;1.20;;;0.60;;
65289;SDS011;51893;59.754;10.110;2023-03-13T04:04:45;2.00;;;0.90;;
65289;SDS011;51893;59.754;10.110;2023-03-13T04:07:15;0.60;;;0.60;;
65289;SDS011;51893;59.754;10.110;2023-03-13T04:09:44;0.80;;;0.80;;
65289;SDS011;51893;59.754;10.110;2023-03-13T04:12:12;2.50;;;0.80;;
65289;SDS011;51893;59.754;10.110;2023-03-13T04:14:42;1.60;;;0.90;;
65289;SDS011;51893;59.754;10.110;2023-03-13T04:17:13;0.90;;;0.70;;
65289;SDS011;51893;59.754;10.110;2023-03-13T04:19:41;0.70;;;0.70;;
65289;SDS011;51893;59.754;10.110;2023-03-13T04:22:09;0.90;;;0.60;;
65289;SDS011;51893;59.754;10.110;2023-03-13T04:24:37;1.60;;;0.70;;
65289;SDS011;51893;59.754;10.110;2023-03-13T04:27:07;1.10;;;1.00;;
65289;SDS011;51893;59.754;10.110;2023-03-13T04:29:38;1.10;;;0.70;;
65289;SDS011;51893;59.754;10.110;2023-03-13T04:32:09;1.40;;;0.70;;
65289;SDS011;51893;59.754;10.110;2023-03-13T04:34:37;2.60;;;0.80;;
65289;SDS011;51893;59.754;10.110;2023-03-13T04:37:06;1.00;;;0.80;;
65289;SDS011;51893;59.754;10.110;2023-03-13T04:39:34;1.20;;;0.70;;
65289;SDS011;51893;59.754;10.110;2023-03-13T04:42:03;0.60;;;0.60;;
65289;SDS011;51893;59.754;10.110;2023-03-13T04:44:32;0.80;;;0.60;;
65289;SDS011;51893;59.754;10.110;2023-03-13T04:47:00;0.80;;;0.60;;
65289;SDS011;51893;59.754;10.110;2023-03-13T04:49:31;1.20;;;0.80;;
65289;SDS011;51893;59.754;10.110;2023-03-13T04:52:01;0.60;;;0.60;;
65289;SDS011;51893;59.754;10.110;2023-03-13T04:54:44;1.50;;;0.70;;
65289;SDS011;51893;59.754;10.110;2023-03-13T04:57:12;0.80;;;0.70;;
65289;SDS011;51893;59.754;10.110;2023-03-13T04:59:39;0.80;;;0.70;;
65289;SDS011;51893;59.754;10.110;2023-03-13T05:02:11;0.60;;;0.60;;
65289;SDS011;51893;59.754;10.110;2023-03-13T05:04:39;1.60;;;0.80;;
65289;SDS011;51893;59.754;10.110;2023-03-13T05:07:10;2.50;;;0.90;;
65289;SDS011;51893;59.754;10.110;2023-03-13T05:09:39;1.40;;;0.90;;
65289;SDS011;51893;59.754;10.110;2023-03-13T05:12:07;0.80;;;0.70;;
65289;SDS011;51893;59.754;10.110;2023-03-13T05:14:37;1.00;;;0.70;;
65289;SDS011;51893;59.754;10.110;2023-03-13T05:17:05;0.80;;;0.80;;
65289;SDS011;51893;59.754;10.110;2023-03-13T05:19:33;1.10;;;1.10;;
65289;SDS011;51893;59.754;10.110;2023-03-13T05:22:01;0.80;;;0.80;;
65289;SDS011;51893;59.754;10.110;2023-03-13T05:24:29;1.20;;;0.90;;
65289;SDS011;51893;59.754;10.110;2023-03-13T05:27:00;1.60;;;0.80;;
65289;SDS011;51893;59.754;10.110;2023-03-13T05:29:30;1.10;;;0.70;;
65289;SDS011;51893;59.754;10.110;2023-03-13T05:32:00;1.10;;;0.80;;
65289;SDS011;51893;59.754;10.110;2023-03-13T05:34:27;1.00;;;0.60;;
65289;SDS011;51893;59.754;10.110;2023-03-13T05:36:58;1.10;;;0.80;;
65289;SDS011;51893;59.754;10.110;2023-03-13T05:39:27;1.20;;;0.70;;
65289;SDS011;51893;59.754;10.110;2023-03-13T05:41:56;0.70;;;0.70;;
65289;SDS011;51893;59.754;10.110;2023-03-13T05:44:24;3.50;;;1.30;;
65289;SDS011;51893;59.754;10.110;2023-03-13T05:46:52;1.40;;;0.80;;
65289;SDS011;51893;59.754;10.110;2023-03-13T05:49:23;1.60;;;1.00;;
65289;SDS011;51893;59.754;10.110;2023-03-13T05:51:51;2.00;;;0.70;;
65289;SDS011;51893;59.754;10.110;2023-03-13T05:54:23;0.80;;;0.70;;
65289;SDS011;51893;59.754;10.110;2023-03-13T05:56:52;3.20;;;0.90;;
65289;SDS011;51893;59.754;10.110;2023-03-13T05:59:22;1.10;;;0.70;;
65289;SDS011;51893;59.754;10.110;2023-03-13T06:01:50;1.70;;;0.90;;
65289;SDS011;51893;59.754;10.110;2023-03-13T06:04:24;1.00;;;1.00;;
65289;SDS011;51893;59.754;10.110;2023-03-13T06:06:52;1.80;;;1.00;;
65289;SDS011;51893;59.754;10.110;2023-03-13T06:09:20;1.50;;;0.90;;
65289;SDS011;51893;59.754;10.110;2023-03-13T06:11:49;1.80;;;0.90;;
65289;SDS011;51893;59.754;10.110;2023-03-13T06:14:16;1.10;;;0.90;;
65289;SDS011;51893;59.754;10.110;2023-03-13T06:16:44;1.50;;;0.70;;
65289;SDS011;51893;59.754;10.110;2023-03-13T06:19:14;1.70;;;0.80;;
65289;SDS011;51893;59.754;10.110;2023-03-13T06:21:45;0.80;;;0.60;;
65289;SDS011;51893;59.754;10.110;2023-03-13T06:24:13;1.10;;;0.90;;
65289;SDS011;51893;59.754;10.110;2023-03-13T06:26:41;0.80;;;0.80;;
65289;SDS011;51893;59.754;10.110;2023-03-13T06:29:10;2.30;;;0.70;;
65289;SDS011;51893;59.754;10.110;2023-03-13T06:31:38;1.90;;;0.90;;
65289;SDS011;51893;59.754;10.110;2023-03-13T06:34:10;0.80;;;0.80;;
65289;SDS011;51893;59.754;10.110;2023-03-13T06:36:39;0.80;;;0.80;;
65289;SDS011;51893;59.754;10.110;2023-03-13T06:39:09;2.00;;;1.00;;
65289;SDS011;51893;59.754;10.110;2023-03-13T06:41:39;0.80;;;0.80;;
65289;SDS011;51893;59.754;10.110;2023-03-13T06:44:07;2.70;;;1.00;;
65289;SDS011;51893;59.754;10.110;2023-03-13T06:46:35;1.00;;;0.90;;
65289;SDS011;51893;59.754;10.110;2023-03-13T06:49:07;1.60;;;1.00;;
65289;SDS011;51893;59.754;10.110;2023-03-13T06:51:38;1.00;;;0.90;;
65289;SDS011;51893;59.754;10.110;2023-03-13T06:54:06;2.40;;;0.90;;
65289;SDS011;51893;59.754;10.110;2023-03-13T06:56:37;1.10;;;1.00;;
65289;SDS011;51893;59.754;10.110;2023-03-13T06:59:07;2.70;;;1.00;;
65289;SDS011;51893;59.754;10.110;2023-03-13T07:01:36;3.10;;;1.20;;
65289;SDS011;51893;59.754;10.110;2023-03-13T07:04:06;1.20;;;1.10;;
65289;SDS011;51893;59.754;10.110;2023-03-13T07:06:36;2.30;;;1.00;;
65289;SDS011;51893;59.754;10.110;2023-03-13T07:09:06;0.80;;;0.80;;
65289;SDS011;51893;59.754;10.110;2023-03-13T07:11:34;1.00;;;0.80;;
65289;SDS011;51893;59.754;10.110;2023-03-13T07:14:03;1.50;;;0.90;;
65289;SDS011;51893;59.754;10.110;2023-03-13T07:16:44;2.90;;;1.20;;
65289;SDS011;51893;59.754;10.110;2023-03-13T07:19:13;2.20;;;1.10;;
65289;SDS011;51893;59.754;10.110;2023-03-13T07:21:43;1.30;;;1.10;;
65289;SDS011;51893;59.754;10.110;2023-03-13T07:24:11;1.40;;;0.90;;
65289;SDS011;51893;59.754;10.110;2023-03-13T07:26:44;1.20;;;0.80;;
65289;SDS011;51893;59.754;10.110;2023-03-13T07:29:32;0.70;;;0.70;;
65289;SDS011;51893;59.754;10.110;2023-03-13T07:32:02;2.30;;;1.00;;
65289;SDS011;51893;59.754;10.110;2023-03-13T07:34:30;1.10;;;0.90;;
65289;SDS011;51893;59.754;10.110;2023-03-13T07:37:00;1.20;;;1.00;;
65289;SDS011;51893;59.754;10.110;2023-03-13T07:39:33;1.00;;;0.90;;
65289;SDS011;51893;59.754;10.110;2023-03-13T07:42:01;1.80;;;1.10;;
65289;SDS011;51893;59.754;10.110;2023-03-13T07:44:29;1.80;;;0.90;;
65289;SDS011;51893;59.754;10.110;2023-03-13T07:46:59;4.70;;;1.10;;
65289;SDS011;51893;59.754;10.110;2023-03-13T07:49:29;0.90;;;0.90;;
65289;SDS011;51893;59.754;10.110;2023-03-13T07:52:05;0.80;;;0.80;;
65289;SDS011;51893;59.754;10.110;2023-03-13T07:54:34;2.00;;;1.00;;
65289;SDS011;51893;59.754;10.110;2023-03-13T07:57:03;1.10;;;1.00;;
65289;SDS011;51893;59.754;10.110;2023-03-13T07:59:31;1.00;;;1.00;;
65289;SDS011;51893;59.754;10.110;2023-03-13T08:02:11;1.40;;;0.90;;
65289;SDS011;51893;59.754;10.110;2023-03-13T08:04:40;0.90;;;0.80;;
65289;SDS011;51893;59.754;10.110;2023-03-13T08:07:13;1.00;;;1.00;;
65289;SDS011;51893;59.754;10.110;2023-03-13T08:09:41;2.60;;;0.90;;
65289;SDS011;51893;59.754;10.110;2023-03-13T08:12:10;1.90;;;1.10;;
65289;SDS011;51893;59.754;10.110;2023-03-13T08:14:40;1.10;;;1.00;;
65289;SDS011;51893;59.754;10.110;2023-03-13T08:17:09;1.20;;;1.10;;
65289;SDS011;51893;59.754;10.110;2023-03-13T08:19:37;0.60;;;0.60;;
65289;SDS011;51893;59.754;10.110;2023-03-13T08:22:05;1.00;;;0.90;;
65289;SDS011;51893;59.754;10.110;2023-03-13T08:24:34;1.70;;;1.00;;
65289;SDS011;51893;59.754;10.110;2023-03-13T08:27:05;0.90;;;0.80;;
65289;SDS011;51893;59.754;10.110;2023-03-13T08:29:33;2.70;;;1.00;;
65289;SDS011;51893;59.754;10.110;2023-03-13T08:32:04;1.50;;;1.20;;
65289;SDS011;51893;59.754;10.110;2023-03-13T08:34:33;0.80;;;0.70;;
65289;SDS011;51893;59.754;10.110;2023-03-13T08:37:04;1.20;;;1.10;;
65289;SDS011;51893;59.754;10.110;2023-03-13T08:39:35;0.80;;;0.80;;
65289;SDS011;51893;59.754;10.110;2023-03-13T08:42:07;1.30;;;1.00;;
65289;SDS011;51893;59.754;10.110;2023-03-13T08:44:38;0.80;;;0.80;;
65289;SDS011;51893;59.754;10.110;2023-03-13T08:47:08;2.00;;;1.10;;
65289;SDS011;51893;59.754;10.110;2023-03-13T08:49:37;0.70;;;0.70;;
65289;SDS011;51893;59.754;10.110;2023-03-13T08:52:06;0.70;;;0.70;;
65289;SDS011;51893;59.754;10.110;2023-03-13T08:54:36;1.20;;;0.80;;
65289;SDS011;51893;59.754;10.110;2023-03-13T08:57:04;1.20;;;0.90;;
65289;SDS011;51893;59.754;10.110;2023-03-13T08:59:34;0.80;;;0.80;;
65289;SDS011;51893;59.754;10.110;2023-03-13T09:02:04;1.10;;;1.00;;
65289;SDS011;51893;59.754;10.110;2023-03-13T09:04:32;0.70;;;0.70;;
65289;SDS011;51893;59.754;10.110;2023-03-13T09:07:00;0.90;;;0.90;;
65289;SDS011;51893;59.754;10.110;2023-03-13T09:09:29;0.60;;;0.60;;
65289;SDS011;51893;59.754;10.110;2023-03-13T09:11:59;0.80;;;0.80;;
65289;SDS011;51893;59.754;10.110;2023-03-13T09:14:27;0.60;;;0.60;;
65289;SDS011;51893;59.754;10.110;2023-03-13T09:16:57;0.60;;;0.60;;
65289;SDS011;51893;59.754;10.110;2023-03-13T09:19:27;1.10;;;1.00;;
65289;SDS011;51893;59.754;10.110;2023-03-13T09:21:55;1.40;;;0.90;;
65289;SDS011;51893;59.754;10.110;2023-03-13T09:24:24;0.80;;;0.80;;
65289;SDS011;51893;59.754;10.110;2023-03-13T09:26:53;1.30;;;0.80;;
65289;SDS011;51893;59.754;10.110;2023-03-13T09:29:29;0.90;;;0.90;;
65289;SDS011;51893;59.754;10.110;2023-03-13T09:31:57;1.10;;;1.00;;
65289;SDS011;51893;59.754;10.110;2023-03-13T09:34:25;1.00;;;1.00;;
65289;SDS011;51893;59.754;10.110;2023-03-13T09:36:56;1.50;;;1.40;;
65289;SDS011;51893;59.754;10.110;2023-03-13T09:39:26;1.20;;;1.10;;
65289;SDS011;51893;59.754;10.110;2023-03-13T09:47:57;1.70;;;1.00;;
65289;SDS011;51893;59.754;10.110;2023-03-13T09:50:35;1.50;;;0.70;;
65289;SDS011;51893;59.754;10.110;2023-03-13T09:53:18;0.70;;;0.70;;
65289;SDS011;51893;59.754;10.110;2023-03-13T09:56:04;0.80;;;0.80;;
65289;SDS011;51893;59.754;10.110;2023-03-13T09:58:41;0.90;;;0.90;;
65289;SDS011;51893;59.754;10.110;2023-03-13T10:01:23;1.60;;;1.10;;
65289;SDS011;51893;59.754;10.110;2023-03-13T10:07:10;1.00;;;0.80;;
65289;SDS011;51893;59.754;10.110;2023-03-13T10:09:48;1.40;;;0.80;;
65289;SDS011;51893;59.754;10.110;2023-03-13T10:12:23;1.40;;;0.70;;
65289;SDS011;51893;59.754;10.110;2023-03-13T10:15:22;1.20;;;1.00;;
65289;SDS011;51893;59.754;10.110;2023-03-13T10:17:54;1.30;;;0.80;;
65289;SDS011;51893;59.754;10.110;2023-03-13T10:20:46;0.60;;;0.60;;
65289;SDS011;51893;59.754;10.110;2023-03-13T10:23:38;1.30;;;0.70;;
65289;SDS011;51893;59.754;10.110;2023-03-13T10:26:39;0.70;;;0.70;;
65289;SDS011;51893;59.754;10.110;2023-03-13T10:29:22;0.80;;;0.80;;
65289;SDS011;51893;59.754;10.110;2023-03-13T10:32:03;0.70;;;0.70;;
65289;SDS011;51893;59.754;10.110;2023-03-13T10:34:59;0.50;;;0.50;;
65289;SDS011;51893;59.754;10.110;2023-03-13T10:37:41;1.00;;;0.90;;
65289;SDS011;51893;59.754;10.110;2023-03-13T10:40:22;0.80;;;0.80;;
65289;SDS011;51893;59.754;10.110;2023-03-13T10:42:59;1.40;;;0.90;;
65289;SDS011;51893;59.754;10.110;2023-03-13T10:45:40;1.00;;;1.00;;
65289;SDS011;51893;59.754;10.110;2023-03-13T10:50:50;0.80;;;0.80;;
65289;SDS011;51893;59.754;10.110;2023-03-13T10:53:30;0.70;;;0.70;;
65289;SDS011;51893;59.754;10.110;2023-03-13T10:56:12;1.00;;;0.70;;
65289;SDS011;51893;59.754;10.110;2023-03-13T10:58:48;1.00;;;1.00;;
65289;SDS011;51893;59.754;10.110;2023-03-13T11:01:24;1.40;;;0.90;;
65289;SDS011;51893;59.754;10.110;2023-03-13T11:04:39;0.70;;;0.70;;
65289;SDS011;51893;59.754;10.110;2023-03-13T11:07:19;1.50;;;0.90;;
65289;SDS011;51893;59.754;10.110;2023-03-13T11:10:02;5.40;;;1.80;;
65289;SDS011;51893;59.754;10.110;2023-03-13T11:12:51;1.70;;;1.60;;
65289;SDS011;51893;59.754;10.110;2023-03-13T11:15:49;2.30;;;1.20;;
65289;SDS011;51893;59.754;10.110;2023-03-13T11:21:47;0.90;;;0.80;;
65289;SDS011;51893;59.754;10.110;2023-03-13T11:27:46;1.50;;;1.40;;
65289;SDS011;51893;59.754;10.110;2023-03-13T11:33:37;4.60;;;3.00;;
65289;SDS011;51893;59.754;10.110;2023-03-13T11:36:40;4.50;;;2.20;;
65289;SDS011;51893;59.754;10.110;2023-03-13T11:49:15;0.80;;;0.80;;
65289;SDS011;51893;59.754;10.110;2023-03-13T11:52:14;0.80;;;0.80;;
65289;SDS011;51893;59.754;10.110;2023-03-13T11:54:54;0.70;;;0.70;;
65289;SDS011;51893;59.754;10.110;2023-03-13T11:57:43;0.90;;;0.90;;
65289;SDS011;51893;59.754;10.110;2023-03-13T12:03:05;2.60;;;1.50;;
65289;SDS011;51893;59.754;10.110;2023-03-13T12:05:54;0.80;;;0.80;;
65289;SDS011;51893;59.754;10.110;2023-03-13T12:08:57;1.50;;;1.40;;
65289;SDS011;51893;59.754;10.110;2023-03-13T12:12:02;1.50;;;1.10;;
65289;SDS011;51893;59.754;10.110;2023-03-13T12:23:39;2.50;;;2.10;;
65289;SDS011;51893;59.754;10.110;2023-03-13T12:26:31;4.20;;;2.10;;
65289;SDS011;51893;59.754;10.110;2023-03-13T12:29:27;4.90;;;2.10;;
65289;SDS011;51893;59.754;10.110;2023-03-13T12:32:39;1.70;;;1.30;;
65289;SDS011;51893;59.754;10.110;2023-03-13T12:35:28;3.20;;;2.20;;
65289;SDS011;51893;59.754;10.110;2023-03-13T12:38:19;3.40;;;2.10;;
65289;SDS011;51893;59.754;10.110;2023-03-13T12:41:17;2.10;;;1.90;;
65289;SDS011;51893;59.754;10.110;2023-03-13T12:43:52;1.60;;;1.20;;
65289;SDS011;51893;59.754;10.110;2023-03-13T12:59:34;2.50;;;1.50;;
65289;SDS011;51893;59.754;10.110;2023-03-13T13:02:23;1.10;;;1.00;;
65289;SDS011;51893;59.754;10.110;2023-03-13T13:04:56;1.20;;;0.90;;
65289;SDS011;51893;59.754;10.110;2023-03-13T13:07:36;1.40;;;0.80;;
65289;SDS011;51893;59.754;10.110;2023-03-13T13:12:41;1.40;;;1.20;;
65289;SDS011;51893;59.754;10.110;2023-03-13T13:15:24;0.90;;;0.90;;
65289;SDS011;51893;59.754;10.110;2023-03-13T13:23:40;2.00;;;1.00;;
65289;SDS011;51893;59.754;10.110;2023-03-13T13:29:03;1.30;;;0.90;;
65289;SDS011;51893;59.754;10.110;2023-03-13T13:42:59;1.10;;;1.00;;
65289;SDS011;51893;59.754;10.110;2023-03-13T13:45:34;1.40;;;1.20;;
65289;SDS011;51893;59.754;10.110;2023-03-13T13:48:28;1.90;;;1.30;;
65289;SDS011;51893;59.754;10.110;2023-03-13T13:53:58;1.00;;;1.00;;
65289;SDS011;51893;59.754;10.110;2023-03-13T13:56:33;2.00;;;1.10;;
65289;SDS011;51893;59.754;10.110;2023-03-13T14:02:04;1.60;;;1.00;;
65289;SDS011;51893;59.754;10.110;2023-03-13T14:10:51;0.50;;;0.50;;
65289;SDS011;51893;59.754;10.110;2023-03-13T14:13:35;1.00;;;1.00;;
65289;SDS011;51893;59.754;10.110;2023-03-13T14:16:30;1.70;;;1.30;;
65289;SDS011;51893;59.754;10.110;2023-03-13T14:18:58;0.80;;;0.80;;
65289;SDS011;51893;59.754;10.110;2023-03-13T14:21:26;1.10;;;1.10;;
65289;SDS011;51893;59.754;10.110;2023-03-13T14:23:55;1.00;;;1.00;;
65289;SDS011;51893;59.754;10.110;2023-03-13T14:26:25;1.80;;;1.40;;
65289;SDS011;51893;59.754;10.110;2023-03-13T14:28:58;2.30;;;1.10;;
65289;SDS011;51893;59.754;10.110;2023-03-13T14:31:37;3.70;;;1.60;;
65289;SDS011;51893;59.754;10.110;2023-03-13T14:34:11;0.80;;;0.80;;
65289;SDS011;51893;59.754;10.110;2023-03-13T14:36:48;1.20;;;1.10;;
65289;SDS011;51893;59.754;10.110;2023-03-13T14:42:05;1.40;;;1.00;;
65289;SDS011;51893;59.754;10.110;2023-03-13T14:44:41;0.70;;;0.60;;
65289;SDS011;51893;59.754;10.110;2023-03-13T14:47:22;1.00;;;0.80;;
65289;SDS011;51893;59.754;10.110;2023-03-13T14:50:00;1.00;;;0.90;;
65289;SDS011;51893;59.754;10.110;2023-03-13T14:52:33;0.80;;;0.80;;
65289;SDS011;51893;59.754;10.110;2023-03-13T14:55:25;1.30;;;1.20;;
65289;SDS011;51893;59.754;10.110;2023-03-13T14:58:03;1.80;;;1.60;;
65289;SDS011;51893;59.754;10.110;2023-03-13T15:00:54;1.40;;;1.30;;
65289;SDS011;51893;59.754;10.110;2023-03-13T15:03:32;1.40;;;1.30;;
65289;SDS011;51893;59.754;10.110;2023-03-13T15:08:39;1.30;;;1.20;;
65289;SDS011;51893;59.754;10.110;2023-03-13T15:11:30;1.40;;;1.10;;
65289;SDS011;51893;59.754;10.110;2023-03-13T15:14:02;1.50;;;1.40;;
65289;SDS011;51893;59.754;10.110;2023-03-13T15:16:30;1.20;;;1.10;;
65289;SDS011;51893;59.754;10.110;2023-03-13T15:18:58;2.90;;;1.30;;
65289;SDS011;51893;59.754;10.110;2023-03-13T15:21:30;1.50;;;1.40;;
65289;SDS011;51893;59.754;10.110;2023-03-13T15:24:12;1.30;;;1.20;;
65289;SDS011;51893;59.754;10.110;2023-03-13T15:26:42;0.80;;;0.80;;
65289;SDS011;51893;59.754;10.110;2023-03-13T15:29:10;1.70;;;1.20;;
65289;SDS011;51893;59.754;10.110;2023-03-13T15:31:38;1.50;;;1.20;;
65289;SDS011;51893;59.754;10.110;2023-03-13T15:34:11;1.30;;;1.10;;
65289;SDS011;51893;59.754;10.110;2023-03-13T15:36:40;1.10;;;1.00;;
65289;SDS011;51893;59.754;10.110;2023-03-13T15:39:17;1.90;;;1.70;;
65289;SDS011;51893;59.754;10.110;2023-03-13T15:41:48;2.50;;;1.40;;
65289;SDS011;51893;59.754;10.110;2023-03-13T15:44:16;2.10;;;1.10;;
65289;SDS011;51893;59.754;10.110;2023-03-13T15:46:44;1.20;;;1.10;;
65289;SDS011;51893;59.754;10.110;2023-03-13T15:49:13;2.80;;;1.90;;
65289;SDS011;51893;59.754;10.110;2023-03-13T15:51:43;1.20;;;1.10;;
65289;SDS011;51893;59.754;10.110;2023-03-13T15:54:10;1.80;;;1.50;;
65289;SDS011;51893;59.754;10.110;2023-03-13T15:56:39;1.10;;;1.10;;
65289;SDS011;51893;59.754;10.110;2023-03-13T15:59:11;0.90;;;0.80;;
65289;SDS011;51893;59.754;10.110;2023-03-13T16:01:41;1.10;;;1.10;;
65289;SDS011;51893;59.754;10.110;2023-03-13T16:04:12;1.10;;;1.00;;
65289;SDS011;51893;59.754;10.110;2023-03-13T16:06:40;1.40;;;1.30;;
65289;SDS011;51893;59.754;10.110;2023-03-13T16:09:09;2.60;;;1.40;;
65289;SDS011;51893;59.754;10.110;2023-03-13T16:11:38;3.10;;;1.40;;
65289;SDS011;51893;59.754;10.110;2023-03-13T16:14:06;1.20;;;1.10;;
65289;SDS011;51893;59.754;10.110;2023-03-13T16:16:34;1.60;;;1.50;;
65289;SDS011;51893;59.754;10.110;2023-03-13T16:19:04;1.50;;;1.30;;
65289;SDS011;51893;59.754;10.110;2023-03-13T16:21:34;0.90;;;0.90;;
65289;SDS011;51893;59.754;10.110;2023-03-13T16:24:03;1.90;;;1.40;;
65289;SDS011;51893;59.754;10.110;2023-03-13T16:26:31;3.00;;;1.80;;
65289;SDS011;51893;59.754;10.110;2023-03-13T16:29:00;2.40;;;1.70;;
65289;SDS011;51893;59.754;10.110;2023-03-13T16:31:30;2.80;;;1.40;;
65289;SDS011;51893;59.754;10.110;2023-03-13T16:33:59;3.10;;;1.50;;
65289;SDS011;51893;59.754;10.110;2023-03-13T16:36:30;6.70;;;3.30;;
65289;SDS011;51893;59.754;10.110;2023-03-13T16:39:01;4.50;;;2.10;;
65289;SDS011;51893;59.754;10.110;2023-03-13T16:41:32;5.00;;;2.80;;
65289;SDS011;51893;59.754;10.110;2023-03-13T16:44:00;7.30;;;3.20;;
65289;SDS011;51893;59.754;10.110;2023-03-13T16:46:34;2.00;;;1.70;;
65289;SDS011;51893;59.754;10.110;2023-03-13T16:49:05;1.50;;;1.40;;